Time;durP1;ratioP1;P1;durP2;ratioP2;P2;SDS_P1;SDS_P2;PMS_P1;PMS_P2;Temp;Humidity;BMP_temperature;BMP_pressure;BME280_temperature;BME280_humidity;BME280_pressure;Samples;Min_cycle;Max_cycle;Signal;HPM_P1;HPM_P2
2022/05/29 00:01:50;;;;;;;9.80;2.55;;;;;;;10.44;67.41;101602.78;3581739;40;20124;-63
2022/05/29 00:04:16;;;;;;;9.82;2.53;;;;;;;10.45;66.58;101597.31;3584872;40;20052;-63
2022/05/29 00:06:48;;;;;;;10.70;2.65;;;;;;;10.44;67.36;101600.97;3585445;40;20523;-64
2022/05/29 00:09:25;;;;;;;6.25;2.40;;;;;;;9.96;66.83;101513.69;3588541;40;20048;-63
2022/05/29 00:11:51;;;;;;;6.03;2.40;;;;;;;10.36;67.41;101588.81;3581725;40;20114;-64
2022/05/29 00:14:17;;;;;;;4.95;2.47;;;;;;;10.34;67.45;101594.28;3585001;40;20113;-63
2022/05/29 00:16:43;;;;;;;5.45;2.15;;;;;;;10.29;67.20;101590.09;3585097;40;20056;-63
2022/05/29 00:19:08;;;;;;;8.45;2.35;;;;;;;10.31;67.66;101593.56;3583861;40;20368;-63
2022/05/29 00:21:36;;;;;;;6.15;2.33;;;;;;;10.30;67.54;101595.38;3584744;40;20089;-63
2022/05/29 00:24:03;;;;;;;5.40;2.20;;;;;;;9.97;67.90;101546.78;3584562;40;20053;-63
2022/05/29 00:26:29;;;;;;;5.07;2.40;;;;;;;10.20;67.62;101580.59;3584710;40;20048;-63
2022/05/29 00:28:54;;;;;;;8.02;2.42;;;;;;;10.13;67.63;101568.41;3584489;40;20113;-63
2022/05/29 00:31:20;;;;;;;7.43;2.63;;;;;;;10.16;67.73;101584.41;3582531;40;20057;-63
2022/05/29 00:33:45;;;;;;;9.02;2.40;;;;;;;10.15;68.53;101571.91;3584695;40;20060;-63
2022/05/29 00:36:15;;;;;;;9.68;2.45;;;;;;;10.17;67.80;101580.75;3582136;40;20417;-63
2022/05/29 00:38:44;;;;;;;4.70;2.40;;;;;;;10.14;67.88;101570.16;3584830;40;20071;-63
2022/05/29 00:41:22;;;;;;;6.70;2.33;;;;;;;10.14;68.05;101575.53;3583787;40;20056;-63
2022/05/29 00:44:18;;;;;;;7.47;2.80;;;;;;;10.11;67.89;101570.31;3582512;40;20060;-63
2022/05/29 00:46:52;;;;;;;7.30;2.80;;;;;;;10.09;68.35;101562.31;3581915;40;20071;-63
2022/05/29 00:49:26;;;;;;;6.32;2.55;;;;;;;10.08;68.76;101565.94;3580844;40;20056;-62
2022/05/29 00:52:06;;;;;;;5.78;2.20;;;;;;;10.05;69.13;101560.72;3581389;40;20060;-62
2022/05/29 00:54:42;;;;;;;12.27;2.85;;;;;;;10.04;68.59;101555.44;3584583;40;20071;-62
2022/05/29 00:57:15;;;;;;;7.22;2.30;;;;;;;10.03;69.37;101553.69;3584308;40;20051;-62
2022/05/29 00:59:43;;;;;;;7.95;2.60;;;;;;;9.96;68.51;101540.56;3581400;40;20051;-62
2022/05/29 01:02:09;;;;;;;9.60;2.72;;;;;;;9.98;68.80;101549.38;3584265;40;20056;-63
2022/05/29 01:04:40;;;;;;;8.07;2.50;;;;;;;9.99;68.91;101556.53;3586796;40;20128;-62
2022/05/29 01:07:11;;;;;;;8.55;2.95;;;;;;;9.97;69.38;101544.09;3581751;40;20056;-62
2022/05/29 01:09:42;;;;;;;7.75;2.85;;;;;;;9.97;70.12;101541.44;3588362;40;20048;-62
2022/05/29 01:12:36;;;;;;;10.70;3.15;;;;;;;10.00;70.11;101544.81;3584190;40;20391;-63
2022/05/29 01:15:22;;;;;;;8.80;3.08;;;;;;;10.01;70.47;101543.00;3581924;40;20425;-62
2022/05/29 01:18:07;;;;;;;9.95;3.60;;;;;;;10.06;70.46;101542.81;3584938;40;20107;-62
2022/05/29 01:21:18;;;;;;;12.13;3.22;;;;;;;10.11;71.07;101543.44;3584575;40;20064;-62
2022/05/29 01:24:22;;;;;;;8.18;3.10;;;;;;;10.14;70.30;101540.59;3580876;40;20054;-62
2022/05/29 01:27:30;;;;;;;6.00;2.70;;;;;;;10.20;70.22;101532.25;3585168;40;20055;-63
2022/05/29 01:30:25;;;;;;;7.18;3.38;;;;;;;10.24;70.05;101536.50;3585020;40;20059;-62
2022/05/29 01:33:22;;;;;;;6.60;3.13;;;;;;;10.22;70.01;101530.38;3585038;40;20064;-62
2022/05/29 01:36:03;;;;;;;9.10;3.40;;;;;;;10.19;70.24;101519.78;3588905;40;20063;-62
2022/05/29 01:38:41;;;;;;;10.65;3.55;;;;;;;10.18;70.15;101528.75;3585759;40;20310;-62
2022/05/29 01:41:21;;;;;;;10.48;3.20;;;;;;;10.14;70.81;101528.03;3584297;40;20044;-62
2022/05/29 01:44:15;;;;;;;7.82;3.03;;;;;;;10.13;69.65;101525.44;3582811;40;20052;-62
2022/05/29 01:46:50;;;;;;;8.30;3.08;;;;;;;10.04;69.99;101504.41;3585403;40;20100;-62
2022/05/29 01:49:28;;;;;;;9.57;3.13;;;;;;;9.94;69.94;101491.41;3583701;40;20058;-62
2022/05/29 01:52:22;;;;;;;11.35;4.90;;;;;;;10.08;69.96;101517.59;3585146;40;20061;-62
2022/05/29 01:55:04;;;;;;;8.75;2.92;;;;;;;10.03;70.09;101514.28;3585720;40;20408;-62
2022/05/29 01:57:41;;;;;;;9.88;3.20;;;;;;;10.02;70.30;101512.50;3584354;40;20617;-62
2022/05/29 02:00:21;;;;;;;14.13;3.38;;;;;;;10.03;69.83;101513.41;3585535;40;20063;-62
2022/05/29 02:03:13;;;;;;;9.43;2.85;;;;;;;10.01;70.11;101508.09;3584054;40;20057;-62
2022/05/29 02:05:49;;;;;;;9.57;3.10;;;;;;;10.00;70.13;101504.53;3585129;40;20056;-62
2022/05/29 02:08:55;;;;;;;10.25;3.55;;;;;;;9.92;69.83;101498.66;3581820;40;20051;-62
2022/05/29 02:11:25;;;;;;;5.82;2.92;;;;;;;9.84;71.12;101498.19;3562527;40;20119;-62
2022/05/29 02:14:07;;;;;;;9.52;3.28;;;;;;;9.74;70.59;101507.63;3558709;40;20049;-62
2022/05/29 02:16:56;;;;;;;10.07;3.38;;;;;;;9.71;70.52;101497.88;3573412;40;21340;-62
2022/05/29 02:19:34;;;;;;;17.23;3.50;;;;;;;9.68;71.58;101502.53;3573430;40;20053;-62
2022/05/29 02:22:14;;;;;;;10.32;3.10;;;;;;;9.69;70.52;101498.91;3583848;40;20052;-62
2022/05/29 02:24:50;;;;;;;9.20;3.42;;;;;;;9.65;70.93;101498.19;3583708;40;20133;-62
2022/05/29 02:27:31;;;;;;;7.75;3.30;;;;;;;9.64;71.73;101496.44;3583695;40;20041;-62
2022/05/29 02:29:59;;;;;;;8.52;3.40;;;;;;;9.69;71.47;101488.16;3584239;40;20122;-62
2022/05/29 02:33:03;;;;;;;7.97;2.95;;;;;;;9.71;72.01;101480.91;3581994;40;20423;-62
2022/05/29 02:35:41;;;;;;;13.82;4.05;;;;;;;9.79;71.17;101489.47;3583073;40;20722;-62
2022/05/29 02:38:31;;;;;;;6.70;3.40;;;;;;;9.80;71.39;101485.84;3583363;40;20092;-63
2022/05/29 02:41:20;;;;;;;10.25;3.33;;;;;;;9.69;71.14;101472.06;3580437;40;20056;-62
2022/05/29 02:44:21;;;;;;;9.73;3.40;;;;;;;9.74;71.01;101486.13;3584009;40;20055;-62
2022/05/29 02:47:14;;;;;;;7.72;3.10;;;;;;;9.67;70.11;101490.94;3583747;40;20378;-62
2022/05/29 02:49:57;;;;;;;7.72;3.13;;;;;;;9.65;71.14;101486.56;3583682;40;20427;-62
2022/05/29 02:52:22;;;;;;;7.75;3.00;;;;;;;9.63;70.31;101485.75;3582031;40;20379;-62
2022/05/29 02:54:48;;;;;;;10.27;3.10;;;;;;;9.61;70.68;101479.59;3583750;40;20052;-62
2022/05/29 02:57:14;;;;;;;10.60;3.30;;;;;;;9.58;71.26;101482.41;3583839;40;20298;-62
2022/05/29 02:59:51;;;;;;;9.32;3.55;;;;;;;9.56;71.05;101477.13;3583972;40;20044;-62
2022/05/29 03:02:43;;;;;;;6.18;3.92;;;;;;;9.52;71.16;101470.19;3583101;40;20052;-62
2022/05/29 03:05:41;;;;;;;9.35;2.95;;;;;;;9.51;70.91;101474.69;3584166;40;20052;-62
2022/05/29 03:08:46;;;;;;;7.95;3.08;;;;;;;9.53;71.09;101469.22;3583570;40;20052;-63
2022/05/29 03:11:40;;;;;;;8.05;2.83;;;;;;;9.49;70.55;101465.81;3573558;40;20096;-62
2022/05/29 03:14:46;;;;;;;7.07;3.00;;;;;;;9.52;71.19;101465.69;3584409;40;20319;-62
2022/05/29 03:17:38;;;;;;;7.43;3.03;;;;;;;9.55;71.56;101464.66;3582830;40;20056;-62
2022/05/29 03:20:25;;;;;;;7.38;3.70;;;;;;;9.57;71.21;101468.13;3585235;40;20140;-62
2022/05/29 03:23:07;;;;;;;6.22;3.05;;;;;;;9.59;70.72;101462.72;3586035;40;20428;-62
2022/05/29 03:25:46;;;;;;;9.35;3.20;;;;;;;9.62;71.25;101462.56;3585367;40;20091;-62
2022/05/29 03:28:41;;;;;;;8.80;3.03;;;;;;;9.43;70.63;101428.53;3583951;40;20436;-64
2022/05/29 03:31:18;;;;;;;7.43;3.13;;;;;;;9.67;70.58;101458.72;3585139;40;20057;-63
2022/05/29 03:33:48;;;;;;;9.52;2.83;;;;;;;9.72;71.07;101458.47;3581572;40;20093;-63
2022/05/29 03:36:17;;;;;;;8.32;2.55;;;;;;;9.72;70.78;101455.81;3584812;40;20072;-63
2022/05/29 03:38:46;;;;;;;6.55;2.75;;;;;;;9.79;70.31;101448.31;3587862;40;20055;-63
2022/05/29 03:41:39;;;;;;;7.72;3.40;;;;;;;9.80;70.93;101450.94;3585037;40;20322;-63
2022/05/29 03:44:05;;;;;;;7.20;2.67;;;;;;;9.86;70.86;101441.69;3582331;40;20322;-63
2022/05/29 03:46:32;;;;;;;10.55;3.20;;;;;;;9.90;70.80;101444.16;3585053;40;20122;-63
2022/05/29 03:48:57;;;;;;;8.60;3.03;;;;;;;9.95;69.96;101438.56;3585501;40;20151;-63
2022/05/29 03:51:23;;;;;;;6.10;3.03;;;;;;;10.02;70.06;101428.38;3583779;40;20052;-64
2022/05/29 03:53:48;;;;;;;8.57;2.75;;;;;;;10.05;70.13;101436.28;3585665;40;20059;-63
2022/05/29 03:56:14;;;;;;;8.07;3.15;;;;;;;10.03;70.08;101431.00;3584864;40;20068;-64
2022/05/29 03:58:40;;;;;;;10.57;3.03;;;;;;;10.09;70.70;101427.16;3583602;40;20098;-63
2022/05/29 04:01:05;;;;;;;7.03;2.70;;;;;;;10.09;70.03;101427.16;3584792;40;20382;-63
2022/05/29 04:03:31;;;;;;;4.68;2.90;;;;;;;10.11;70.72;101438.66;3584828;40;20129;-63
2022/05/29 04:05:56;;;;;;;9.82;3.05;;;;;;;10.10;70.80;101429.75;3588873;40;20048;-64
2022/05/29 04:13:52;;;;;;;9.52;3.20;;;;;;;10.15;71.25;101433.09;3585157;40;20057;-63
2022/05/29 04:16:18;;;;;;;7.43;3.28;;;;;;;10.20;70.74;101431.00;3582202;40;20048;-64
2022/05/29 04:18:43;;;;;;;12.45;3.53;;;;;;;10.22;71.28;101429.13;3584671;40;20048;-65
2022/05/29 04:21:09;;;;;;;10.15;3.58;;;;;;;10.23;70.99;101430.00;3584657;40;20048;-66
2022/05/29 04:23:35;;;;;;;9.13;3.25;;;;;;;10.22;70.54;101431.81;3583113;40;20068;-66
2022/05/29 04:26:00;;;;;;;8.40;2.72;;;;;;;10.27;71.12;101430.75;3584927;40;20052;-66
2022/05/29 04:28:26;;;;;;;8.18;3.92;;;;;;;10.29;70.53;101418.97;3584589;40;20367;-66
2022/05/29 04:30:52;;;;;;;9.00;3.08;;;;;;;10.32;70.97;101420.63;3584425;40;20078;-66
2022/05/29 04:33:18;;;;;;;8.80;3.63;;;;;;;10.28;70.72;101409.19;3583179;40;20119;-68
2022/05/29 04:35:50;;;;;;;9.48;3.17;;;;;;;10.37;71.26;101421.25;3584249;40;20064;-66
2022/05/29 04:38:18;;;;;;;6.57;3.17;;;;;;;10.35;71.67;101415.09;3584828;40;20055;-66
2022/05/29 04:40:44;;;;;;;12.60;3.20;;;;;;;10.38;71.45;101423.88;3584344;40;20044;-66
2022/05/29 04:43:13;;;;;;;7.10;3.00;;;;;;;10.46;72.04;101426.16;3583180;40;20053;-67
2022/05/29 04:45:43;;;;;;;9.95;3.65;;;;;;;10.35;72.72;101397.16;3584385;40;20121;-69
2022/05/29 04:48:10;;;;;;;12.25;4.10;;;;;;;10.51;73.93;101429.47;3587507;39;20330;-69
2022/05/29 04:50:37;;;;;;;10.27;3.60;;;;;;;9.94;73.90;101349.06;3580870;40;20328;-68
2022/05/29 04:53:04;;;;;;;10.07;4.10;;;;;;;10.39;75.10;101439.03;3584269;40;20065;-69
2022/05/29 04:55:31;;;;;;;9.88;3.97;;;;;;;10.36;76.08;101436.50;3584269;40;20088;-70
2022/05/29 04:57:56;;;;;;;9.80;4.00;;;;;;;10.31;76.19;101430.53;3592141;40;20409;-68
2022/05/29 05:00:23;;;;;;;16.08;5.05;;;;;;;10.28;76.78;101437.88;3583758;40;20080;-68
2022/05/29 05:02:48;;;;;;;9.45;3.67;;;;;;;10.25;77.55;101425.41;3584204;40;20115;-67
2022/05/29 05:05:16;;;;;;;10.13;4.28;;;;;;;10.26;78.67;101424.50;3589054;40;20067;-68
2022/05/29 05:07:42;;;;;;;10.20;3.92;;;;;;;10.27;78.23;101418.16;3583233;40;20048;-67
2022/05/29 05:10:12;;;;;;;12.50;4.68;;;;;;;10.30;78.03;101423.38;3584693;40;20264;-67
2022/05/29 05:12:38;;;;;;;9.50;4.00;;;;;;;10.29;77.66;101416.28;3584073;40;20165;-67
2022/05/29 05:15:06;;;;;;;12.23;4.65;;;;;;;10.24;78.50;101399.47;3583695;40;20054;-67
2022/05/29 05:17:32;;;;;;;8.82;3.80;;;;;;;10.27;78.21;101402.03;3583764;40;20079;-67
2022/05/29 05:19:57;;;;;;;10.48;4.60;;;;;;;10.30;78.75;101409.94;3584093;40;20052;-67
2022/05/29 05:22:23;;;;;;;12.43;4.55;;;;;;;10.35;79.15;101418.66;3583583;40;20056;-68
2022/05/29 05:24:49;;;;;;;5.85;3.50;;;;;;;10.38;79.34;101423.00;3581253;40;20079;-68
2022/05/29 05:27:15;;;;;;;11.52;4.40;;;;;;;10.41;79.07;101418.34;3584095;40;20589;-67
2022/05/29 05:29:42;;;;;;;8.75;4.20;;;;;;;10.42;79.19;101409.31;3583660;40;20061;-66
2022/05/29 05:32:08;;;;;;;9.63;4.30;;;;;;;10.47;78.72;101414.47;3581413;40;20279;-68
2022/05/29 05:34:34;;;;;;;10.43;4.15;;;;;;;10.55;79.72;101411.38;3587466;40;20064;-67
2022/05/29 05:36:59;;;;;;;8.65;4.38;;;;;;;10.58;79.29;101409.38;3586219;40;20052;-67
2022/05/29 05:39:25;;;;;;;9.27;3.97;;;;;;;10.62;79.39;101420.84;3582469;40;20067;-67
2022/05/29 05:41:50;;;;;;;7.97;3.88;;;;;;;10.66;78.37;101417.06;3583626;40;20123;-68
2022/05/29 05:44:16;;;;;;;9.75;4.38;;;;;;;10.69;78.53;101414.22;3583938;40;20302;-68
2022/05/29 05:46:49;;;;;;;8.73;4.13;;;;;;;10.70;78.02;101415.94;3583871;40;20071;-68
2022/05/29 05:49:18;;;;;;;8.45;4.03;;;;;;;10.62;78.85;101404.72;3581873;40;20532;-68
2022/05/29 05:51:45;;;;;;;8.30;4.28;;;;;;;10.71;77.96;101409.59;3583997;40;20251;-68
2022/05/29 05:54:11;;;;;;;6.47;3.92;;;;;;;10.74;78.50;101412.13;3586768;39;20056;-66
2022/05/29 05:56:42;;;;;;;10.10;4.57;;;;;;;10.71;78.05;101414.97;3583798;40;20059;-68
2022/05/29 05:59:08;;;;;;;8.82;4.47;;;;;;;10.80;79.26;101409.13;3581709;40;20383;-67
2022/05/29 06:01:34;;;;;;;9.55;4.45;;;;;;;10.83;78.95;101403.59;3583289;40;20084;-67
2022/05/29 06:03:59;;;;;;;8.07;4.68;;;;;;;10.88;79.46;101406.91;3585858;40;20059;-67
2022/05/29 06:06:25;;;;;;;8.77;4.15;;;;;;;10.93;78.98;101401.25;3585569;40;20132;-67
2022/05/29 06:08:51;;;;;;;12.10;4.35;;;;;;;11.04;78.91;101411.47;3583856;40;20060;-67
2022/05/29 06:11:16;;;;;;;9.15;4.55;;;;;;;11.14;79.26;101404.63;3584148;40;20616;-67
2022/05/29 06:13:42;;;;;;;8.15;3.92;;;;;;;11.12;77.93;101399.31;3587416;40;20063;-67
2022/05/29 06:16:09;;;;;;;9.52;4.25;;;;;;;11.17;78.28;101404.44;3581086;40;20040;-67
2022/05/29 06:18:35;;;;;;;7.10;4.20;;;;;;;11.17;78.64;101404.44;3583326;40;20044;-70
2022/05/29 06:21:04;;;;;;;9.70;4.10;;;;;;;11.25;78.66;101402.19;3583590;40;20083;-71
2022/05/29 06:23:33;;;;;;;13.88;4.32;;;;;;;11.31;78.88;101403.66;3581494;40;20356;-68
2022/05/29 06:26:09;;;;;;;10.18;4.00;;;;;;;11.41;78.88;101406.72;3579874;40;20058;-67
2022/05/29 06:28:35;;;;;;;8.00;3.83;;;;;;;11.37;77.96;101389.88;3581898;40;20059;-69
2022/05/29 06:31:05;;;;;;;7.35;4.00;;;;;;;11.38;77.09;101399.69;3583270;40;20051;-68
2022/05/29 06:33:31;;;;;;;10.95;3.95;;;;;;;11.55;78.06;101405.00;3580301;40;20052;-67
2022/05/29 06:36:25;;;;;;;12.02;3.90;;;;;;;11.68;77.99;101401.59;3583569;40;20052;-67
2022/05/29 06:38:54;;;;;;;10.73;3.92;;;;;;;11.82;77.56;101407.06;3583930;40;20137;-67
2022/05/29 06:41:24;;;;;;;8.05;3.70;;;;;;;11.94;77.40;101413.59;3580308;40;20049;-67
2022/05/29 06:43:51;;;;;;;9.95;3.63;;;;;;;12.05;76.60;101408.44;3583956;40;20080;-67
2022/05/29 06:46:17;;;;;;;7.10;3.75;;;;;;;12.19;76.96;101407.63;3583231;40;20048;-68
2022/05/29 06:48:43;;;;;;;9.90;3.63;;;;;;;12.27;76.33;101406.25;3583712;40;20106;-68
2022/05/29 06:51:19;;;;;;;7.07;3.50;;;;;;;12.38;75.57;101402.03;3583292;40;20060;-67
2022/05/29 06:53:45;;;;;;;6.63;3.42;;;;;;;12.47;75.48;101407.72;3583879;40;20064;-68
2022/05/29 06:56:10;;;;;;;8.10;3.35;;;;;;;12.57;75.13;101416.13;3584874;40;20058;-68
2022/05/29 06:58:36;;;;;;;11.23;3.63;;;;;;;12.65;75.26;101413.81;3583323;40;20372;-67
2022/05/29 07:09:21;;;;;;;7.93;2.83;;;;;;;12.81;73.32;101411.03;3583458;40;20056;-67
2022/05/29 07:11:53;;;;;;;10.13;3.42;;;;;;;12.85;72.60;101406.34;3585169;40;20048;-68
2022/05/29 07:14:19;;;;;;;7.95;3.20;;;;;;;12.88;73.10;101403.47;3585646;40;20063;-68
2022/05/29 07:16:45;;;;;;;9.02;3.15;;;;;;;12.95;74.18;101407.50;3583099;40;20056;-68
2022/05/29 07:19:13;;;;;;;5.68;2.97;;;;;;;12.96;74.00;101384.94;3584835;40;20044;-69
2022/05/29 07:21:41;;;;;;;6.20;3.10;;;;;;;13.19;73.65;101405.06;3585030;40;20048;-68
2022/05/29 07:24:09;;;;;;;6.13;2.97;;;;;;;13.32;73.00;101399.78;3583590;40;20048;-68
2022/05/29 07:26:36;;;;;;;7.68;3.10;;;;;;;13.39;71.88;101401.16;3585046;40;20135;-67
2022/05/29 07:29:03;;;;;;;8.77;3.40;;;;;;;13.46;71.02;101400.63;3584454;40;20064;-67
2022/05/29 07:31:29;;;;;;;8.95;2.88;;;;;;;13.52;70.61;101391.28;3584691;40;20084;-68
2022/05/29 07:33:55;;;;;;;8.00;3.22;;;;;;;13.64;71.06;101400.44;3582749;40;20086;-67
2022/05/29 07:36:24;;;;;;;5.15;2.78;;;;;;;13.73;70.39;101388.13;3584941;40;20055;-68
2022/05/29 07:38:50;;;;;;;11.60;3.20;;;;;;;13.81;69.18;101385.78;3585429;40;20060;-67
2022/05/29 07:44:00;;;;;;;7.80;2.60;;;;;;;13.89;67.46;101388.81;3584844;40;20413;-67
2022/05/29 07:46:26;;;;;;;8.07;2.67;;;;;;;13.90;67.25;101391.44;3584624;40;20056;-67
2022/05/29 07:48:52;;;;;;;7.10;2.85;;;;;;;14.00;67.79;101390.84;3585087;40;20056;-67
2022/05/29 07:51:18;;;;;;;5.97;3.10;;;;;;;14.05;67.42;101378.75;3584897;40;20048;-66
2022/05/29 07:53:44;;;;;;;9.30;2.80;;;;;;;14.25;66.71;101388.19;3585752;40;20048;-67
2022/05/29 07:56:10;;;;;;;8.50;2.50;;;;;;;14.38;65.27;101380.97;3585042;40;20374;-67
2022/05/29 07:58:38;;;;;;;6.53;2.83;;;;;;;14.45;64.31;101386.81;3583244;40;20052;-67
2022/05/29 08:01:05;;;;;;;8.23;2.63;;;;;;;14.15;62.97;101338.44;3585012;40;20052;-66
2022/05/29 08:03:30;;;;;;;7.60;2.28;;;;;;;14.38;62.68;101374.69;3584875;40;20050;-67
2022/05/29 08:05:57;;;;;;;6.90;2.40;;;;;;;14.39;63.71;101376.44;3585005;40;20052;-67
2022/05/29 08:08:23;;;;;;;9.25;2.15;;;;;;;14.14;63.52;101326.75;3584550;40;20044;-68
2022/05/29 08:10:49;;;;;;;8.52;2.50;;;;;;;14.53;64.41;101383.63;3585149;40;20064;-67
2022/05/29 08:13:15;;;;;;;6.57;2.65;;;;;;;14.59;63.64;101377.81;3584877;40;20110;-67
2022/05/29 08:15:41;;;;;;;7.65;2.38;;;;;;;14.68;62.95;101374.41;3584912;40;20075;-66
2022/05/29 08:18:09;;;;;;;6.95;2.30;;;;;;;14.76;62.39;101377.47;3585974;40;20063;-67
2022/05/29 08:20:39;;;;;;;6.35;2.25;;;;;;;14.80;61.76;101370.00;3584044;40;20158;-69
2022/05/29 08:23:06;;;;;;;7.53;2.47;;;;;;;14.94;61.39;101374.41;3585889;40;20109;-67
2022/05/29 08:31:02;;;;;;;5.25;2.00;;;;;;;15.40;57.25;101362.97;3581378;40;20153;-68
2022/05/29 08:33:33;;;;;;;7.07;2.35;;;;;;;15.37;57.83;101374.03;3583563;40;20493;-66
2022/05/29 08:36:10;;;;;;;7.07;2.13;;;;;;;15.39;58.59;101367.53;3581282;40;20056;-67
2022/05/29 08:38:42;;;;;;;5.72;2.20;;;;;;;15.68;59.11;101359.13;3584786;40;20056;-68
2022/05/29 08:41:18;;;;;;;8.30;2.00;;;;;;;16.09;57.63;101350.56;3583157;40;20054;-67
2022/05/29 08:43:54;;;;;;;5.30;1.90;;;;;;;16.80;56.55;101362.22;3588754;39;20064;-66
2022/05/29 08:46:31;;;;;;;5.78;2.03;;;;;;;17.22;52.95;101356.16;3591145;39;20310;-67
2022/05/29 08:48:58;;;;;;;7.90;2.05;;;;;;;17.13;52.24;101360.50;3584578;40;20364;-68
2022/05/29 08:51:58;;;;;;;7.10;2.05;;;;;;;16.93;52.76;101359.38;3589889;40;20366;-67
2022/05/29 08:54:44;;;;;;;6.82;2.08;;;;;;;16.45;53.27;101360.38;3590668;40;20128;-66
2022/05/29 08:57:57;;;;;;;8.52;2.30;;;;;;;16.09;54.22;101355.13;3583765;40;20360;-67
2022/05/29 09:01:37;;;;;;;4.97;1.93;;;;;;;15.77;56.44;101347.59;3588146;40;20096;-67
2022/05/29 09:04:19;;;;;;;7.70;2.10;;;;;;;16.04;56.44;101341.03;3581154;40;20084;-67
2022/05/29 09:06:55;;;;;;;3.97;1.90;;;;;;;16.30;52.66;101341.72;3587620;40;20605;-66
2022/05/29 09:09:38;;;;;;;3.63;1.63;;;;;;;16.36;53.35;101336.69;3590012;39;20056;-67
2022/05/29 09:12:15;;;;;;;7.88;1.85;;;;;;;16.37;53.92;101338.44;3585425;40;20106;-66
2022/05/29 09:15:15;;;;;;;4.43;2.00;;;;;;;16.24;53.84;101345.81;3586107;39;20124;-67
2022/05/29 09:17:51;;;;;;;8.55;2.58;;;;;;;15.97;58.52;101346.91;3584382;40;20048;-66
2022/05/29 09:20:32;;;;;;;8.38;2.65;;;;;;;15.77;60.45;101339.44;3584464;40;20052;-67
2022/05/29 09:23:06;;;;;;;7.82;2.28;;;;;;;15.73;59.94;101341.53;3577259;40;20064;-65
2022/05/29 09:25:43;;;;;;;7.30;2.53;;;;;;;15.83;58.71;101328.16;3590149;39;20056;-65
2022/05/29 09:28:27;;;;;;;9.35;2.60;;;;;;;16.18;59.86;101335.44;3584669;40;20125;-63
2022/05/29 09:31:06;;;;;;;5.68;1.88;;;;;;;16.60;58.43;101323.03;3584464;40;20333;-65
2022/05/29 09:33:35;;;;;;;7.97;1.90;;;;;;;16.74;55.98;101334.66;3583299;40;20048;-64
2022/05/29 09:36:24;;;;;;;5.82;1.65;;;;;;;16.58;54.14;101329.56;3588468;40;20401;-64
2022/05/29 09:39:00;;;;;;;4.28;1.80;;;;;;;16.35;54.88;101329.53;3586229;40;20045;-63
2022/05/29 09:42:11;;;;;;;4.07;1.83;;;;;;;16.17;54.75;101331.81;3589351;40;20064;-64
2022/05/29 09:44:37;;;;;;;6.20;1.63;;;;;;;15.92;54.19;101330.16;3585709;40;20086;-64
2022/05/29 09:50:22;;;;;;;6.60;1.90;;;;;;;15.67;56.29;101319.44;3593375;40;20133;-64
2022/05/29 09:52:49;;;;;;;5.05;1.77;;;;;;;15.80;56.03;101320.25;3580138;40;21102;-64
2022/05/29 09:55:31;;;;;;;3.47;1.90;;;;;;;16.29;56.46;101305.59;3574738;40;20036;-64
2022/05/29 09:58:06;;;;;;;7.97;1.90;;;;;;;16.81;54.97;101317.78;3580542;40;20113;-66
2022/05/29 10:00:53;;;;;;;4.90;2.20;;;;;;;17.38;53.46;101305.03;3581699;40;20048;-66
2022/05/29 10:03:49;;;;;;;6.90;2.00;;;;;;;17.91;49.75;101298.78;3581854;40;20121;-66
2022/05/29 10:06:30;;;;;;;3.08;1.90;;;;;;;18.22;49.00;101292.44;3587794;40;20051;-66
2022/05/29 10:09:21;;;;;;;6.43;2.28;;;;;;;18.43;48.66;101294.31;3580711;40;20427;-66
2022/05/29 10:11:55;;;;;;;5.00;1.90;;;;;;;18.84;49.79;101292.50;3584020;40;20072;-66
2022/05/29 10:14:40;;;;;;;4.43;1.80;;;;;;;18.62;46.63;101297.13;3583465;40;20052;-66
2022/05/29 10:17:35;;;;;;;4.20;1.77;;;;;;;18.17;46.37;101293.81;3579580;40;20052;-66
2022/05/29 10:20:01;;;;;;;6.05;2.05;;;;;;;17.95;49.07;101289.38;3583836;40;20464;-65
2022/05/29 10:22:41;;;;;;;10.13;2.25;;;;;;;17.73;49.84;101291.19;3587103;40;20044;-68
2022/05/29 10:25:55;;;;;;;10.55;2.65;;;;;;;17.18;57.27;101312.06;3581384;40;20052;-67
2022/05/29 10:28:31;;;;;;;5.00;1.50;;;;;;;16.43;58.64;101309.97;3584787;40;20056;-67
2022/05/29 10:31:08;;;;;;;4.65;1.05;;;;;;;15.72;55.30;101303.69;3585361;40;20052;-69
2022/05/29 10:33:35;;;;;;;3.30;0.98;;;;;;;15.12;58.50;101281.03;3584469;40;20374;-68
2022/05/29 10:36:08;;;;;;;3.13;1.30;;;;;;;14.97;60.68;101302.00;3584556;40;20084;-66
2022/05/29 10:38:35;;;;;;;3.05;1.35;;;;;;;14.72;63.33;101291.22;3584217;40;20063;-66
2022/05/29 10:41:04;;;;;;;4.05;1.45;;;;;;;14.56;63.39;101296.84;3585116;40;20529;-66
2022/05/29 10:43:51;;;;;;;4.75;2.05;;;;;;;14.43;67.20;101288.69;3587423;40;20084;-67
2022/05/29 10:46:55;;;;;;;5.25;1.60;;;;;;;14.33;68.13;101301.13;3585488;40;20054;-66
2022/05/29 10:49:31;;;;;;;3.00;1.98;;;;;;;14.27;68.91;101296.13;3583820;40;20052;-65
2022/05/29 10:52:05;;;;;;;6.32;2.28;;;;;;;14.05;68.31;101299.47;3584300;40;20124;-67
2022/05/29 10:55:07;;;;;;;5.97;2.05;;;;;;;13.94;69.31;101308.31;3588045;39;20040;-67
2022/05/29 10:58:23;;;;;;;7.82;3.47;;;;;;;13.86;71.06;101307.97;3583394;40;20051;-67
2022/05/29 11:04:25;;;;;;;6.00;3.13;;;;;;;13.76;72.33;101306.84;3585051;40;20186;-67
2022/05/29 11:07:25;;;;;;;6.97;2.60;;;;;;;13.72;72.59;101299.94;3582133;40;20052;-65
2022/05/29 11:10:31;;;;;;;6.00;2.28;;;;;;;13.75;71.54;101302.44;3585840;40;20086;-65
2022/05/29 11:13:21;;;;;;;4.05;2.33;;;;;;;13.81;70.99;101296.63;3584046;40;20495;-66
2022/05/29 11:16:29;;;;;;;5.70;2.53;;;;;;;13.92;72.96;101291.31;3585911;40;20060;-65
2022/05/29 11:19:15;;;;;;;3.28;1.58;;;;;;;14.12;71.06;101296.25;3581007;40;20056;-66
2022/05/29 11:22:24;;;;;;;5.85;2.28;;;;;;;14.39;72.03;101287.16;3584061;40;20082;-66
2022/05/29 11:25:40;;;;;;;5.20;1.88;;;;;;;14.68;70.95;101295.09;3583731;40;20092;-66
2022/05/29 11:28:20;;;;;;;2.63;1.80;;;;;;;14.77;69.48;101294.44;3582422;40;20075;-65
2022/05/29 11:31:16;;;;;;;5.35;2.30;;;;;;;14.74;67.91;101300.06;3585273;40;20626;-66
2022/05/29 11:34:14;;;;;;;6.10;2.50;;;;;;;14.63;67.30;101295.44;3583045;40;20137;-66
2022/05/29 11:36:54;;;;;;;5.75;1.80;;;;;;;14.46;68.11;101299.31;3582425;40;20094;-66
2022/05/29 11:39:33;;;;;;;5.82;1.85;;;;;;;14.33;67.89;101296.56;3584783;40;20392;-65
2022/05/29 11:42:10;;;;;;;5.68;2.08;;;;;;;14.16;69.51;101299.59;3581176;40;20100;-67
2022/05/29 11:44:51;;;;;;;4.97;1.90;;;;;;;14.05;71.25;101296.75;3585040;40;20048;-67
2022/05/29 11:51:18;;;;;;;2.42;1.70;;;;;;;13.80;71.84;101297.59;3584283;40;20417;-66
2022/05/29 11:54:18;;;;;;;4.95;2.00;;;;;;;13.74;70.54;101282.66;3584863;40;20462;-65
2022/05/29 11:57:09;;;;;;;4.40;1.98;;;;;;;13.70;70.63;101286.50;3584711;40;20090;-65
2022/05/29 11:59:55;;;;;;;4.75;1.73;;;;;;;13.67;71.01;101287.63;3581812;40;20122;-66
2022/05/29 12:03:03;;;;;;;6.35;1.85;;;;;;;13.61;70.79;101285.31;3583443;40;20056;-66
2022/05/29 12:05:44;;;;;;;2.85;1.30;;;;;;;13.66;70.31;101291.25;3584043;40;20051;-66
2022/05/29 12:08:27;;;;;;;3.08;1.70;;;;;;;13.79;72.59;101285.03;3582185;40;20059;-67
2022/05/29 12:11:04;;;;;;;2.92;1.40;;;;;;;14.06;72.88;101283.16;3585328;40;20110;-68
2022/05/29 12:13:56;;;;;;;3.90;1.05;;;;;;;14.34;70.58;101273.13;3584918;40;20049;-67
2022/05/29 12:16:30;;;;;;;2.95;1.10;;;;;;;14.77;70.49;101272.78;3584875;40;20055;-67
2022/05/29 12:19:03;;;;;;;1.73;0.80;;;;;;;15.26;69.19;101274.59;3583633;39;20092;-67
2022/05/29 12:21:47;;;;;;;2.38;0.90;;;;;;;15.54;67.64;101268.84;3583956;40;20057;-67
2022/05/29 12:24:23;;;;;;;2.75;1.00;;;;;;;15.64;64.63;101279.00;3583499;40;20048;-68
2022/05/29 12:27:03;;;;;;;0.95;0.68;;;;;;;15.65;63.86;101272.59;3584974;40;20048;-66
2022/05/29 12:29:38;;;;;;;3.28;0.90;;;;;;;15.54;63.91;101263.44;3585086;40;20060;-67
2022/05/29 12:32:21;;;;;;;2.30;1.27;;;;;;;15.49;63.99;101254.78;3585367;40;20085;-67
2022/05/29 12:35:04;;;;;;;1.77;1.00;;;;;;;15.55;64.86;101262.44;3592269;39;20108;-68
2022/05/29 12:38:01;;;;;;;1.80;1.10;;;;;;;15.66;65.73;101266.16;3584528;40;20083;-67
2022/05/29 12:41:13;;;;;;;2.08;1.25;;;;;;;15.76;64.75;101261.78;3583294;40;20044;-67